TAF and METAR

Decoding for American and Canadian METARs and TAFs is not fully implemented.

METAR for Juan Manuel Gálvez International Airport

MHRO 192100Z 13006KT 9999 SCT020 BKN250 33/27 Q1007 A2974 NOSIG
Report created 19. okt 23:00
wind 6 knots from SE (130°) visibility > 10km scattered clouds (~50% cover) at 2000 feet broken clouds (~75% cover) at 25000 feet Temperature 33° with dewpoint at 27° (Humidity 70.91%) Pressure 1007 hPa

TAF for Juan Manuel Gálvez International Airport

TAF MHRO 191635Z 1918/2018 23006KT 9999 SCT025 TX34/1919Z TN27/2012Z BECMG 2003/2005 12008KT
Report created 19. okt 18:35

between 19. okt 20:00 - 20. okt 20:00

wind 6 knots from SW (230°) visibility > 10km scattered clouds (~50% cover) at 2500 feet Max temperature 34° expected today at around 21 o'clock Min temperature 27° expected tomorrow at around 14 o'clock

becoming between 20. okt 05:00 - 20. okt 07:00

wind 8 knots from ESE (120°)
Juan Manuel Gálvez International Airport in Honduras at 5m

Latest 5 airports